createdAt,value
2018-03-17T00:00:08.440Z,25.22
2018-03-17T00:02:37.441Z,25.22
2018-03-17T00:05:06.503Z,25.25
2018-03-17T00:07:35.574Z,25.24
2018-03-17T00:10:04.638Z,25.20
2018-03-17T00:12:33.701Z,25.17
2018-03-17T00:15:03.086Z,25.16
2018-03-17T00:17:31.953Z,25.14
2018-03-17T00:20:02.746Z,25.12
2018-03-17T00:22:31.834Z,25.11
2018-03-17T00:25:00.894Z,25.06
2018-03-17T00:27:29.985Z,25.05
2018-03-17T00:29:59.070Z,25.04
2018-03-17T00:32:28.129Z,25.02
2018-03-17T00:34:57.193Z,25.04
2018-03-17T00:37:26.270Z,24.97
2018-03-17T00:39:55.325Z,25.00
2018-03-17T00:42:24.374Z,24.99
2018-03-17T00:44:53.774Z,24.95
2018-03-17T00:47:22.833Z,24.94
2018-03-17T00:49:51.885Z,24.91
2018-03-17T00:52:20.986Z,24.88
2018-03-17T00:54:50.041Z,24.90
2018-03-17T00:57:19.101Z,24.91
2018-03-17T00:59:48.452Z,24.88
2018-03-17T01:02:17.502Z,24.88
2018-03-17T01:04:46.571Z,24.86
2018-03-17T01:07:15.695Z,24.83
2018-03-17T01:09:44.871Z,24.81
2018-03-17T01:12:13.927Z,24.75
2018-03-17T01:14:43.336Z,24.77
2018-03-17T01:17:12.225Z,24.80
2018-03-17T01:19:41.322Z,24.72
2018-03-17T01:22:10.425Z,24.74
2018-03-17T01:24:39.481Z,24.77
2018-03-17T01:27:08.535Z,24.72
2018-03-17T01:29:37.624Z,24.74
2018-03-17T01:32:06.698Z,24.72
2018-03-17T01:34:35.754Z,24.72
2018-03-17T01:37:05.097Z,24.72
2018-03-17T01:39:34.145Z,24.66
2018-03-17T01:42:03.240Z,24.68
2018-03-17T01:44:32.309Z,24.61
2018-03-17T01:47:01.371Z,24.64
2018-03-17T01:49:30.431Z,24.67
2018-03-17T01:51:59.506Z,24.63
2018-03-17T01:54:31.761Z,24.65
2018-03-17T01:57:01.229Z,24.65
2018-03-17T01:59:30.302Z,24.65
2018-03-17T02:01:59.361Z,24.59
2018-03-17T02:04:28.809Z,24.58
2018-03-17T02:06:57.874Z,24.55
2018-03-17T02:09:26.929Z,24.53
2018-03-17T02:11:56.301Z,24.53
2018-03-17T02:14:25.367Z,24.56
2018-03-17T02:16:54.437Z,24.49
2018-03-17T02:19:24.004Z,24.48
2018-03-17T02:21:53.060Z,24.47
2018-03-17T02:24:22.119Z,24.49
2018-03-17T02:26:51.214Z,24.46
2018-03-17T02:29:20.269Z,24.41
2018-03-17T02:31:49.322Z,24.42
2018-03-17T02:34:18.782Z,24.42
2018-03-17T02:36:47.852Z,24.38
2018-03-17T02:39:16.903Z,24.35
2018-03-17T02:41:45.986Z,24.35
2018-03-17T02:44:15.053Z,24.39
2018-03-17T02:46:44.118Z,24.35
2018-03-17T02:49:13.554Z,24.28
2018-03-17T02:51:42.614Z,24.27
2018-03-17T02:54:11.663Z,24.26
2018-03-17T02:56:41.040Z,24.25
2018-03-17T02:59:09.862Z,24.28
2018-03-17T03:01:38.931Z,24.21
2018-03-17T03:04:08.341Z,24.24
2018-03-17T03:06:37.406Z,24.24
2018-03-17T03:09:07.250Z,24.21
2018-03-17T03:11:36.632Z,24.19
2018-03-17T03:14:05.689Z,24.14
2018-03-17T03:16:34.758Z,24.17
2018-03-17T03:19:04.225Z,24.11
2018-03-17T03:21:33.286Z,24.13
2018-03-17T03:24:02.355Z,24.11
2018-03-17T03:26:31.445Z,24.10
2018-03-17T03:29:00.504Z,24.14
2018-03-17T03:31:29.557Z,24.09
2018-03-17T03:33:59.003Z,24.04
2018-03-17T03:36:28.058Z,24.05
2018-03-17T03:38:57.118Z,23.96
2018-03-17T03:41:26.040Z,23.94
2018-03-17T03:43:55.167Z,23.95
2018-03-17T03:46:24.225Z,23.97
2018-03-17T03:48:53.302Z,23.94
2018-03-17T03:51:22.359Z,23.92
2018-03-17T03:53:51.414Z,23.91
2018-03-17T03:56:20.849Z,23.88
2018-03-17T03:58:49.900Z,23.84
2018-03-17T04:01:18.989Z,23.86
2018-03-17T04:03:48.524Z,23.85
2018-03-17T04:06:17.582Z,23.82
2018-03-17T04:08:46.640Z,23.79
2018-03-17T04:11:15.718Z,23.78
2018-03-17T04:13:44.774Z,23.79
2018-03-17T04:16:13.833Z,23.48
2018-03-17T04:18:43.225Z,22.78
2018-03-17T04:21:12.099Z,22.59
2018-03-17T04:23:41.162Z,22.17
2018-03-17T04:26:10.614Z,21.99
2018-03-17T04:28:39.519Z,21.74
2018-03-17T04:31:08.529Z,21.72
2018-03-17T04:33:37.916Z,21.52
2018-03-17T04:36:06.981Z,21.17
2018-03-17T04:38:36.054Z,20.97
2018-03-17T04:41:05.502Z,20.97
2018-03-17T04:43:34.557Z,21.03
2018-03-17T04:46:03.609Z,20.95
2018-03-17T04:48:32.982Z,20.93
2018-03-17T04:51:02.043Z,20.94
2018-03-17T04:53:31.110Z,20.93
2018-03-17T04:56:00.593Z,21.02
2018-03-17T04:58:29.657Z,21.16
2018-03-17T05:00:58.721Z,21.12
2018-03-17T05:03:27.977Z,21.21
2018-03-17T05:05:57.123Z,21.11
2018-03-17T05:08:26.193Z,21.18
2018-03-17T05:10:55.662Z,21.18
2018-03-17T05:13:24.726Z,21.17
2018-03-17T05:15:53.790Z,21.18
2018-03-17T05:18:22.861Z,21.13
2018-03-17T05:20:51.914Z,21.15
2018-03-17T05:23:20.966Z,21.15
2018-03-17T05:25:49.926Z,21.12
2018-03-17T05:28:18.991Z,21.05
2018-03-17T05:30:48.057Z,21.00
2018-03-17T05:33:17.150Z,20.93
2018-03-17T05:35:46.224Z,20.88
2018-03-17T05:38:15.277Z,20.92
2018-03-17T05:40:44.695Z,20.95
2018-03-17T05:43:13.820Z,20.95
2018-03-17T05:45:43.050Z,20.91
2018-03-17T05:48:12.905Z,20.93
2018-03-17T05:50:41.967Z,20.90
2018-03-17T05:53:11.019Z,20.92
2018-03-17T05:55:40.516Z,20.88
2018-03-17T05:58:09.566Z,20.87
2018-03-17T06:00:38.533Z,20.82
2018-03-17T06:03:07.901Z,20.83
2018-03-17T06:05:36.982Z,20.83
2018-03-17T06:08:06.069Z,20.80
2018-03-17T06:10:35.484Z,20.79
2018-03-17T06:13:04.554Z,20.74
2018-03-17T06:15:50.557Z,20.63
2018-03-17T06:18:19.622Z,20.71
2018-03-17T06:20:48.689Z,20.73
2018-03-17T06:23:17.787Z,20.71
2018-03-17T06:25:46.845Z,20.66
2018-03-17T06:28:15.898Z,20.65
2018-03-17T06:30:45.028Z,20.71
2018-03-17T06:33:14.250Z,20.64
2018-03-17T06:35:43.311Z,20.64
2018-03-17T06:38:13.040Z,20.52
2018-03-17T06:40:42.103Z,20.56
2018-03-17T06:43:11.168Z,20.54
2018-03-17T06:45:40.534Z,20.47
2018-03-17T06:48:09.626Z,20.32
2018-03-17T06:50:38.690Z,20.27
2018-03-17T06:53:07.781Z,20.22
2018-03-17T06:55:36.837Z,20.21
2018-03-17T06:58:05.891Z,20.11
2018-03-17T07:00:35.348Z,20.21
2018-03-17T07:03:04.578Z,20.17
2018-03-17T07:05:33.634Z,20.17
2018-03-17T07:08:03.114Z,20.15
2018-03-17T07:10:32.174Z,20.12
2018-03-17T07:13:01.246Z,20.13
2018-03-17T07:15:30.317Z,20.09
2018-03-17T07:17:59.374Z,20.07
2018-03-17T07:20:28.439Z,20.11
2018-03-17T07:22:57.771Z,20.14
2018-03-17T07:25:26.854Z,20.12
2018-03-17T07:27:56.118Z,20.15
2018-03-17T07:30:25.200Z,20.12
2018-03-17T07:32:54.259Z,20.14
2018-03-17T07:35:23.314Z,20.15
2018-03-17T07:37:52.780Z,20.17
2018-03-17T07:40:21.854Z,20.14
2018-03-17T07:42:50.910Z,20.19
2018-03-17T07:45:20.047Z,20.19
2018-03-17T07:47:49.695Z,20.11
2018-03-17T07:50:19.062Z,20.13
2018-03-17T07:52:48.772Z,20.09
2018-03-17T07:55:17.878Z,20.14
2018-03-17T07:57:47.253Z,20.13
2018-03-17T08:00:17.399Z,20.09
2018-03-17T08:02:47.232Z,20.15
2018-03-17T08:05:17.184Z,20.18
2018-03-17T08:07:46.859Z,20.18
2018-03-17T08:10:16.773Z,20.21
2018-03-17T08:12:46.782Z,20.12
2018-03-17T08:15:16.496Z,20.17
2018-03-17T08:17:45.551Z,20.14
2018-03-17T08:20:14.606Z,20.10
2018-03-17T08:22:43.691Z,20.01
2018-03-17T08:25:13.358Z,20.00
2018-03-17T08:27:42.456Z,20.07
2018-03-17T08:30:11.535Z,20.07
2018-03-17T08:32:40.595Z,20.00
2018-03-17T08:35:09.655Z,19.87
2018-03-17T08:37:39.025Z,19.93
2018-03-17T08:40:08.100Z,19.88
2018-03-17T08:42:37.162Z,19.84
2018-03-17T08:45:06.247Z,19.84
2018-03-17T08:47:35.303Z,19.87
2018-03-17T08:50:04.366Z,19.79
2018-03-17T08:52:33.441Z,19.74
2018-03-17T08:55:02.503Z,19.83
2018-03-17T08:57:31.580Z,19.81
2018-03-17T09:00:00.961Z,19.76
2018-03-17T09:02:30.030Z,19.81
2018-03-17T09:04:59.097Z,19.75
2018-03-17T09:07:28.186Z,19.73
2018-03-17T09:09:57.242Z,19.71
2018-03-17T09:12:26.318Z,19.73
2018-03-17T09:14:55.402Z,19.70
2018-03-17T09:17:24.563Z,19.57
2018-03-17T09:19:53.622Z,19.50
2018-03-17T09:22:23.050Z,19.50
2018-03-17T09:24:52.108Z,19.50
2018-03-17T09:27:21.170Z,19.55
2018-03-17T09:29:50.245Z,19.56
2018-03-17T09:32:19.150Z,19.55
2018-03-17T09:34:48.198Z,19.62
2018-03-17T09:37:17.454Z,19.61
2018-03-17T09:39:46.505Z,19.60
2018-03-17T09:42:15.581Z,19.58
2018-03-17T09:44:45.002Z,19.60
2018-03-17T09:47:14.073Z,19.61
2018-03-17T09:49:43.134Z,19.67
2018-03-17T09:52:12.630Z,19.67
2018-03-17T09:54:41.851Z,19.62
2018-03-17T09:57:10.841Z,19.61
2018-03-17T09:59:39.929Z,19.65
2018-03-17T10:02:09.004Z,19.61
2018-03-17T10:04:38.095Z,19.54
2018-03-17T10:07:07.169Z,19.46
2018-03-17T10:09:36.229Z,19.38
2018-03-17T10:12:05.283Z,19.40
2018-03-17T10:14:34.359Z,19.29
2018-03-17T10:17:03.422Z,19.25
2018-03-17T10:19:32.485Z,19.18
2018-03-17T10:22:01.950Z,19.18
2018-03-17T10:24:31.009Z,19.01
2018-03-17T10:27:00.066Z,19.04
2018-03-17T10:29:29.194Z,19.07
2018-03-17T10:31:58.440Z,18.93
2018-03-17T10:34:27.508Z,18.86
2018-03-17T10:36:56.598Z,18.82
2018-03-17T10:39:25.659Z,18.82
2018-03-17T10:41:54.758Z,18.75
2018-03-17T10:44:23.846Z,18.71
2018-03-17T10:46:52.909Z,18.75
2018-03-17T10:49:22.297Z,19.12
2018-03-17T10:51:51.823Z,19.60
2018-03-17T10:54:21.019Z,20.09
2018-03-17T10:56:50.094Z,20.06
2018-03-17T10:59:19.022Z,19.80
2018-03-17T11:01:47.897Z,19.60
2018-03-17T11:04:16.971Z,19.57
2018-03-17T11:06:46.376Z,19.65
2018-03-17T11:09:15.448Z,19.61
2018-03-17T11:11:44.371Z,19.70
2018-03-17T11:14:13.456Z,19.73
2018-03-17T11:16:42.557Z,19.84
2018-03-17T11:19:11.623Z,19.82
2018-03-17T11:21:40.722Z,19.68
2018-03-17T11:24:09.786Z,21.27
2018-03-17T11:26:39.149Z,19.66
2018-03-17T11:29:08.051Z,19.57
2018-03-17T11:31:37.106Z,19.44
2018-03-17T11:34:06.158Z,19.58
2018-03-17T11:36:35.511Z,19.67
2018-03-17T11:39:04.081Z,19.55
2018-03-17T11:41:32.951Z,19.46
2018-03-17T11:44:02.386Z,19.45
2018-03-17T11:46:31.456Z,19.37
2018-03-17T11:49:00.537Z,19.37
2018-03-17T11:51:30.106Z,19.33
2018-03-17T11:53:59.166Z,19.34
2018-03-17T11:56:28.219Z,19.36
2018-03-17T11:58:57.738Z,19.29
2018-03-17T12:01:26.794Z,19.29
2018-03-17T12:03:55.873Z,19.24
2018-03-17T12:06:25.294Z,19.19
2018-03-17T12:08:54.342Z,19.21
2018-03-17T12:11:23.415Z,19.24
2018-03-17T12:13:52.506Z,19.21
2018-03-17T12:16:21.597Z,19.31
2018-03-17T12:18:50.665Z,19.21
2018-03-17T12:21:19.759Z,19.45
2018-03-17T12:23:48.844Z,19.81
2018-03-17T12:26:17.922Z,19.77
2018-03-17T12:28:47.035Z,19.88
2018-03-17T12:31:16.102Z,19.89
2018-03-17T12:33:45.153Z,20.79
2018-03-17T12:36:14.243Z,20.22
2018-03-17T12:38:43.331Z,19.93
2018-03-17T12:41:12.425Z,19.81
2018-03-17T12:43:41.527Z,19.76
2018-03-17T12:46:10.619Z,19.45
2018-03-17T12:48:39.704Z,19.35
2018-03-17T12:51:08.788Z,19.57
2018-03-17T12:53:37.888Z,19.32
2018-03-17T12:56:08.061Z,19.20
2018-03-17T12:58:37.128Z,19.20
2018-03-17T13:01:06.182Z,19.95
2018-03-17T13:03:35.304Z,19.84
2018-03-17T13:06:04.364Z,19.35
2018-03-17T13:08:33.427Z,19.55
2018-03-17T13:11:03.296Z,19.87
2018-03-17T13:13:32.392Z,20.08
2018-03-17T13:16:01.460Z,19.32
2018-03-17T13:18:30.553Z,20.38
2018-03-17T13:20:59.610Z,19.59
2018-03-17T13:23:29.246Z,19.43
2018-03-17T13:25:58.339Z,19.33
2018-03-17T13:28:28.910Z,19.46
2018-03-17T13:30:58.010Z,19.14
2018-03-17T13:33:27.214Z,19.89
2018-03-17T13:36:08.222Z,19.18
2018-03-17T13:38:37.304Z,19.98
2018-03-17T13:41:06.119Z,19.25
2018-03-17T13:43:35.549Z,18.90
2018-03-17T13:46:04.376Z,19.19
2018-03-17T13:48:33.258Z,18.92
2018-03-17T13:51:02.545Z,19.06
2018-03-17T13:53:31.604Z,18.94
2018-03-17T13:56:06.117Z,18.99
2018-03-17T13:58:35.284Z,19.00
2018-03-17T14:01:04.529Z,19.05
2018-03-17T14:03:33.646Z,19.24
2018-03-17T14:06:02.540Z,19.26
2018-03-17T14:08:31.602Z,19.39
2018-03-17T14:11:00.948Z,19.34
2018-03-17T14:13:30.148Z,19.68
2018-03-17T14:15:59.215Z,19.81
2018-03-17T14:18:28.628Z,19.77
2018-03-17T14:20:57.685Z,19.90
2018-03-17T14:23:26.738Z,20.03
2018-03-17T14:25:55.822Z,20.05
2018-03-17T14:28:25.075Z,19.92
2018-03-17T14:30:54.165Z,19.87
2018-03-17T14:33:23.389Z,20.15
2018-03-17T14:35:52.883Z,20.03
2018-03-17T14:38:21.938Z,20.02
2018-03-17T14:40:51.422Z,19.96
2018-03-17T14:43:20.517Z,19.86
2018-03-17T14:45:49.579Z,19.66
2018-03-17T14:48:19.000Z,19.66
2018-03-17T14:50:48.067Z,19.59
2018-03-17T14:53:17.241Z,19.47
2018-03-17T14:55:46.904Z,19.33
2018-03-17T14:58:15.961Z,19.26
2018-03-17T15:00:45.119Z,19.18
2018-03-17T15:03:14.199Z,19.07
2018-03-17T15:05:43.254Z,19.09
2018-03-17T15:08:12.314Z,18.91
2018-03-17T15:10:41.697Z,18.96
2018-03-17T15:13:10.764Z,19.01
2018-03-17T15:15:39.770Z,18.86
2018-03-17T15:18:09.237Z,18.72
2018-03-17T15:20:38.290Z,18.75
2018-03-17T15:23:07.358Z,18.81
2018-03-17T15:25:36.443Z,18.88
2018-03-17T15:28:05.530Z,18.95
2018-03-17T15:30:34.588Z,18.93
2018-03-17T15:33:03.680Z,18.99
2018-03-17T15:35:32.771Z,19.03
2018-03-17T15:38:01.825Z,19.06
2018-03-17T15:40:30.943Z,19.04
2018-03-17T15:43:00.001Z,19.12
2018-03-17T15:45:29.796Z,19.07
2018-03-17T15:47:58.898Z,19.04
2018-03-17T15:50:27.960Z,19.03
2018-03-17T15:52:57.026Z,19.06
2018-03-17T15:55:26.108Z,19.02
2018-03-17T15:57:55.163Z,18.99
2018-03-17T16:00:24.217Z,18.95
2018-03-17T16:02:53.307Z,19.02
2018-03-17T16:05:22.380Z,18.94
2018-03-17T16:07:51.440Z,18.84
2018-03-17T16:10:20.571Z,18.83
2018-03-17T16:12:49.642Z,18.72
2018-03-17T16:15:18.706Z,18.61
2018-03-17T16:17:47.782Z,18.59
2018-03-17T16:20:16.844Z,18.51
2018-03-17T16:22:45.907Z,18.48
2018-03-17T16:25:15.130Z,18.45
2018-03-17T16:27:44.237Z,18.39
2018-03-17T16:30:13.332Z,18.46
2018-03-17T16:32:42.402Z,18.54
2018-03-17T16:35:11.469Z,18.58
2018-03-17T16:37:40.536Z,18.61
2018-03-17T16:40:10.096Z,18.62
2018-03-17T16:42:39.154Z,18.63
2018-03-17T16:45:08.209Z,18.64
2018-03-17T16:47:37.591Z,18.64
2018-03-17T16:50:06.647Z,18.66
2018-03-17T16:52:35.701Z,18.66
2018-03-17T16:55:04.783Z,18.68
2018-03-17T16:57:33.850Z,18.68
2018-03-17T17:00:02.814Z,18.66
2018-03-17T17:02:31.715Z,18.67
2018-03-17T17:05:00.608Z,18.68
2018-03-17T17:07:29.674Z,18.62
2018-03-17T17:09:58.757Z,18.62
2018-03-17T17:12:27.846Z,18.53
2018-03-17T17:14:56.718Z,18.49
2018-03-17T17:17:25.853Z,18.48
2018-03-17T17:19:55.047Z,18.43
2018-03-17T17:22:24.104Z,18.45
2018-03-17T17:24:53.183Z,18.37
2018-03-17T17:27:22.318Z,18.34
2018-03-17T17:29:51.385Z,18.29
2018-03-17T17:32:20.460Z,18.32
2018-03-17T17:34:49.516Z,18.39
2018-03-17T17:37:18.581Z,18.41
2018-03-17T17:39:47.673Z,18.45
2018-03-17T17:42:16.737Z,18.45
2018-03-17T17:44:45.790Z,18.50
2018-03-17T17:47:14.871Z,18.46
2018-03-17T17:49:43.940Z,18.46
2018-03-17T17:52:12.994Z,18.47
2018-03-17T17:54:41.839Z,18.45
2018-03-17T17:57:10.896Z,18.44
2018-03-17T17:59:39.969Z,18.44
2018-03-17T18:02:09.225Z,18.42
2018-03-17T18:04:38.290Z,18.42
2018-03-17T18:07:07.349Z,18.40
2018-03-17T18:09:36.425Z,18.40
2018-03-17T18:12:05.478Z,18.38
2018-03-17T18:14:34.530Z,18.35
2018-03-17T18:17:04.224Z,18.36
2018-03-17T18:19:33.287Z,18.35
2018-03-17T18:22:02.339Z,18.32
2018-03-17T18:24:31.426Z,18.24
2018-03-17T18:27:00.487Z,18.26
2018-03-17T18:29:29.567Z,18.16
2018-03-17T18:31:58.642Z,18.16
2018-03-17T18:34:27.710Z,18.09
2018-03-17T18:36:56.764Z,17.99
2018-03-17T18:39:25.848Z,17.90
2018-03-17T18:41:54.910Z,17.92
2018-03-17T18:44:23.969Z,17.72
2018-03-17T18:46:53.141Z,17.58
2018-03-17T18:49:22.208Z,17.62
2018-03-17T18:51:51.271Z,17.53
2018-03-17T18:54:20.374Z,17.23
2018-03-17T18:56:49.441Z,17.25
2018-03-17T18:59:18.500Z,17.29
2018-03-17T19:01:47.574Z,17.26
2018-03-17T19:04:16.690Z,17.09
2018-03-17T19:06:45.744Z,16.94
2018-03-17T19:09:14.834Z,16.70
2018-03-17T19:11:43.886Z,16.68
2018-03-17T19:14:12.971Z,16.79
2018-03-17T19:16:42.054Z,16.88
2018-03-17T19:19:11.132Z,16.97
2018-03-17T19:21:40.206Z,17.10
2018-03-17T19:24:09.288Z,17.15
2018-03-17T19:26:38.354Z,17.24
2018-03-17T19:29:07.442Z,17.30
2018-03-17T19:31:36.513Z,17.37
2018-03-17T19:34:05.578Z,17.42
2018-03-17T19:36:34.640Z,17.44
2018-03-17T19:39:03.295Z,17.47
2018-03-17T19:41:32.361Z,17.50
2018-03-17T19:44:01.498Z,17.51
2018-03-17T19:46:30.580Z,17.51
2018-03-17T19:48:59.669Z,17.58
2018-03-17T19:51:28.726Z,17.60
2018-03-17T19:53:57.818Z,17.60
2018-03-17T19:56:26.866Z,17.64
2018-03-17T19:58:55.914Z,17.64
2018-03-17T20:01:25.070Z,17.65
2018-03-17T20:03:54.307Z,17.67
2018-03-17T20:06:23.443Z,17.65
2018-03-17T20:08:52.530Z,17.66
2018-03-17T20:11:21.398Z,17.68
2018-03-17T20:13:50.280Z,17.71
2018-03-17T20:16:19.382Z,17.73
2018-03-17T20:18:48.635Z,17.72
2018-03-17T20:21:17.730Z,17.74
2018-03-17T20:23:47.338Z,17.69
2018-03-17T20:26:16.394Z,17.71
2018-03-17T20:28:45.457Z,17.66
2018-03-17T20:31:15.174Z,17.69
2018-03-17T20:33:44.230Z,17.67
2018-03-17T20:36:13.282Z,17.69
2018-03-17T20:38:42.378Z,17.70
2018-03-17T20:41:11.447Z,17.74
2018-03-17T20:43:40.508Z,17.69
2018-03-17T20:46:09.914Z,17.64
2018-03-17T20:48:38.970Z,17.66
2018-03-17T20:51:08.026Z,17.70
2018-03-17T20:53:37.390Z,17.73
2018-03-17T20:56:06.445Z,17.67
2018-03-17T20:58:35.495Z,17.62
2018-03-17T21:01:04.588Z,17.62
2018-03-17T21:03:33.647Z,17.64
2018-03-17T21:06:02.542Z,17.65
2018-03-17T21:08:31.628Z,17.65
2018-03-17T21:11:00.930Z,17.61
2018-03-17T21:13:30.150Z,17.60
2018-03-17T21:15:59.584Z,17.59
2018-03-17T21:18:28.643Z,17.63
2018-03-17T21:20:57.711Z,17.67
2018-03-17T21:23:27.162Z,17.71
2018-03-17T21:25:56.214Z,17.74
2018-03-17T21:28:25.294Z,17.77
2018-03-17T21:30:54.753Z,17.81
2018-03-17T21:33:23.593Z,17.85
2018-03-17T21:35:52.667Z,17.88
2018-03-17T21:38:22.047Z,17.89
2018-03-17T21:40:51.169Z,17.90
2018-03-17T21:43:20.389Z,17.93
2018-03-17T21:45:49.836Z,17.95
2018-03-17T21:48:18.903Z,17.93
2018-03-17T21:50:47.962Z,17.93
2018-03-17T21:53:17.443Z,17.95
2018-03-17T21:55:46.519Z,17.96
2018-03-17T21:58:15.584Z,17.97
2018-03-17T22:00:45.057Z,17.96
2018-03-17T22:03:14.294Z,17.98
2018-03-17T22:05:43.433Z,18.01
2018-03-17T22:08:12.801Z,17.98
2018-03-17T22:10:41.858Z,17.97
2018-03-17T22:13:10.922Z,18.00
2018-03-17T22:15:40.306Z,18.03
2018-03-17T22:18:09.357Z,18.04
2018-03-17T22:20:38.433Z,18.02
2018-03-17T22:23:07.797Z,18.01
2018-03-17T22:25:36.864Z,18.03
2018-03-17T22:28:05.921Z,18.03
2018-03-17T22:30:35.389Z,18.06
2018-03-17T22:33:04.446Z,18.06
2018-03-17T22:35:33.505Z,18.03
2018-03-17T22:38:02.830Z,18.09
2018-03-17T22:40:31.890Z,18.08
2018-03-17T22:43:00.945Z,18.09
2018-03-17T22:45:30.322Z,18.07
2018-03-17T22:47:59.378Z,18.06
2018-03-17T22:50:28.438Z,18.06
2018-03-17T22:52:57.863Z,18.05
2018-03-17T22:55:26.920Z,18.09
2018-03-17T22:57:56.067Z,18.05
2018-03-17T23:00:25.150Z,18.06
2018-03-17T23:02:54.260Z,18.05
2018-03-17T23:05:23.349Z,18.04
2018-03-17T23:07:52.422Z,18.04
2018-03-17T23:10:21.478Z,18.07
2018-03-17T23:12:50.752Z,18.04
2018-03-17T23:15:19.857Z,18.03
2018-03-17T23:17:49.126Z,18.03
2018-03-17T23:20:18.187Z,18.01
2018-03-17T23:22:47.265Z,18.04
2018-03-17T23:25:16.325Z,18.02
2018-03-17T23:27:45.386Z,18.04
2018-03-17T23:30:14.510Z,18.02
2018-03-17T23:32:43.381Z,18.03
2018-03-17T23:35:12.446Z,18.01
2018-03-17T23:37:41.872Z,18.04
2018-03-17T23:40:10.734Z,18.03
2018-03-17T23:42:39.785Z,18.04
2018-03-17T23:45:08.862Z,18.06
2018-03-17T23:47:37.735Z,18.05
2018-03-17T23:50:06.614Z,18.05
2018-03-17T23:52:35.806Z,18.03
2018-03-17T23:55:04.693Z,18.03
2018-03-17T23:57:33.757Z,18.02
